Calcasieu River — WDD9615 — position and weather

sailwx.info

Track history (hours):
 
Tides and Currents Weather Stations Pressure Air Temp Water Temp Dewpoint Dewpoint Depression Visibility Wind Speed Wind Dir Waves Ship Positions

Calcasieu River

Owner: Great Lakes Dredge & Dock Company, LLC, Oak Brook, IL. More information available from US FCC via Universal Licensing System and Coast Guard Vessel Documentation Center.

Last reported at 2018-Apr-19 14:45 UTC. Time now 2018-Apr-20 14:14 UTC.
Position N 36°55' W 076°11'.

; draft 3.3 m.

MMSI: 367313850.

Date/timePositionNaut miles runAvg speedWind from/ knotsBaromVisibWave heightAir tempDewpointWater temp
2018-Apr-19 14:45N 36°55' W 076°11'611.0
2018-Apr-19 14:13N 36°59' W 076°05'3 0.2
2018-Apr-18 19:05N 36°60' W 076°02'214.7
2018-Apr-18 18:59N 36°58' W 076°01'914.3
2018-Apr-18 18:23N 36°51' W 075°55'0 0.3
2018-Apr-18 17:57N 36°51' W 075°55'0 0.9
2018-Apr-18 17:27N 36°51' W 075°54'1 0.5
2018-Apr-18 16:05N 36°52' W 075°54'215.7
2018-Apr-18 15:59N 36°53' W 075°56'8 0.4
2018-Apr-17 16:33N 37°00' W 076°02'0 3.2
2018-Apr-17 16:30N 36°60' W 076°01'1 0.5
2018-Apr-17 14:48N 37°01' W 076°02'1 0.4
2018-Apr-17 13:25N 37°00' W 076°02'1 1.4
2018-Apr-17 12:45N 36°60' W 076°01'1 3.8
2018-Apr-17 12:22N 36°58' W 075°60'  
2018-Apr-13 11:51N 36°58' W 076°00'5 0.1
2018-Apr-11 19:25N 36°58' W 076°06'613.3
2018-Apr-11 18:58N 36°55' W 075°59'6 1.3
2018-Apr-11 14:25N 36°51' W 075°53'0 0.1
2018-Apr-11 13:42N 36°51' W 075°53'0 0.8
2018-Apr-11 13:18N 36°51' W 075°54'0 0.9
2018-Apr-11 12:58N 36°51' W 075°54'4 9.2
2018-Apr-11 12:30N 36°54' W 075°57'7 0.3
2018-Apr-10 15:40N 37°00' W 076°01'213.1
2018-Apr-10 15:29N 36°58' W 075°60'612.7
2018-Apr-10 15:00N 36°53' W 075°56'2 4.6
2018-Apr-10 14:29N 36°51' W 075°54'0 0.3
2018-Apr-10 14:00N 36°51' W 075°54'0 0.1
2018-Apr-10 13:30N 36°51' W 075°54'0 0.4
2018-Apr-10 13:00N 36°51' W 075°54'4 8.5
2018-Apr-10 12:29N 36°54' W 075°57'7 0.4
2018-Apr-09 18:30N 36°58' W 076°06'815.0
2018-Apr-09 18:00N 36°54' W 075°57'4 6.8
2018-Apr-09 17:24N 36°51' W 075°54'3 8.3
2018-Apr-09 17:00N 36°54' W 075°57'7 5.0
2018-Apr-09 15:32N 36°60' W 076°02'  
Track history (hours):
 
Tides and Currents Weather Stations Pressure Air Temp Water Temp Dewpoint Dewpoint Depression Visibility Wind Speed Wind Dir Waves Ship Positions

Calcasieu River

Owner: Great Lakes Dredge & Dock Company, LLC, Oak Brook, IL. More information available from US FCC via Universal Licensing System and Coast Guard Vessel Documentation Center.

Last reported at 2018-Apr-19 14:45 UTC. Time now 2018-Apr-20 14:14 UTC.
Position N 36°55' W 076°11'.

; draft 3.3 m.

MMSI: 367313850.

Date/timePositionNaut miles runAvg speedWind from/ knotsBaromVisibWave heightAir tempDewpointWater temp
2018-Apr-19 14:45N 36°55' W 076°11'611.0
2018-Apr-19 14:13N 36°59' W 076°05'3 0.2
2018-Apr-18 19:05N 36°60' W 076°02'214.7
2018-Apr-18 18:59N 36°58' W 076°01'914.3
2018-Apr-18 18:23N 36°51' W 075°55'0 0.3
2018-Apr-18 17:57N 36°51' W 075°55'0 0.9
2018-Apr-18 17:27N 36°51' W 075°54'1 0.5
2018-Apr-18 16:05N 36°52' W 075°54'215.7
2018-Apr-18 15:59N 36°53' W 075°56'8 0.4
2018-Apr-17 16:33N 37°00' W 076°02'0 3.2
2018-Apr-17 16:30N 36°60' W 076°01'1 0.5
2018-Apr-17 14:48N 37°01' W 076°02'1 0.4
2018-Apr-17 13:25N 37°00' W 076°02'1 1.4
2018-Apr-17 12:45N 36°60' W 076°01'1 3.8
2018-Apr-17 12:22N 36°58' W 075°60'  
2018-Apr-13 11:51N 36°58' W 076°00'5 0.1
2018-Apr-11 19:25N 36°58' W 076°06'613.3
2018-Apr-11 18:58N 36°55' W 075°59'6 1.3
2018-Apr-11 14:25N 36°51' W 075°53'0 0.1
2018-Apr-11 13:42N 36°51' W 075°53'0 0.8
2018-Apr-11 13:18N 36°51' W 075°54'0 0.9
2018-Apr-11 12:58N 36°51' W 075°54'4 9.2
2018-Apr-11 12:30N 36°54' W 075°57'7 0.3
2018-Apr-10 15:40N 37°00' W 076°01'213.1
2018-Apr-10 15:29N 36°58' W 075°60'612.7
2018-Apr-10 15:00N 36°53' W 075°56'2 4.6
2018-Apr-10 14:29N 36°51' W 075°54'0 0.3
2018-Apr-10 14:00N 36°51' W 075°54'0 0.1
2018-Apr-10 13:30N 36°51' W 075°54'0 0.4
2018-Apr-10 13:00N 36°51' W 075°54'4 8.5
2018-Apr-10 12:29N 36°54' W 075°57'7 0.4
2018-Apr-09 18:30N 36°58' W 076°06'815.0
2018-Apr-09 18:00N 36°54' W 075°57'4 6.8
2018-Apr-09 17:24N 36°51' W 075°54'3 8.3
2018-Apr-09 17:00N 36°54' W 075°57'7 5.0
2018-Apr-09 15:32N 36°60' W 076°02'  

Dump ship's entire track history